Time;durP1;ratioP1;P1;durP2;ratioP2;P2;SDS_P1;SDS_P2;PMS_P1;PMS_P2;Temp;Humidity;BMP_temperature;BMP_pressure;BME280_temperature;BME280_humidity;BME280_pressure;Samples;Min_cycle;Max_cycle;Signal;HPM_P1;HPM_P2
2023/10/08 05:47:22;;;;;;;;;;;;;;;;;;5014320;28;19929;-74
2023/10/08 05:50:09;;;;;;;;;;;;;;;;;;5014838;28;20255;-74
2023/10/08 05:52:50;;;;;;;;;;;;;;;;;;5014779;28;19944;-75
2023/10/08 05:55:25;;;;;;;;;;;;;;;;;;5014647;28;19926;-74
2023/10/08 05:58:13;;;;;;;;;;;;;;;;;;5016866;28;19921;-78
2023/10/08 06:03:35;;;;;;;;;;;;;;;;;;5008461;28;19922;-79
2023/10/08 06:11:41;;;;;;;;;;;;;;;;;;5016238;28;20441;-79
2023/10/08 06:14:16;;;;;;;;;;;;;;;;;;5016245;28;19957;-78
2023/10/08 06:16:43;;;;;;;;;;;;;;;;;;5015616;28;20299;-78
2023/10/08 06:19:10;;;;;;;;;;;;;;;;;;5015594;28;19925;-78
2023/10/08 06:21:39;;;;;;;;;;;;;;;;;;5015045;28;19925;-77
2023/10/08 06:24:08;;;;;;;;;;;;;;;;;;5014999;28;20526;-77
2023/10/08 06:26:38;;;;;;;;;;;;;;;;;;5016752;28;19948;-78
2023/10/08 06:29:18;;;;;;;;;;;;;;;;;;5017012;28;20290;-78
2023/10/08 06:31:50;;;;;;;;;;;;;;;;;;5017403;28;20385;-78
2023/10/08 06:34:17;;;;;;;;;;;;;;;;;;5017699;28;20378;-78
2023/10/08 06:36:44;;;;;;;;;;;;;;;;;;5019125;28;20377;-79
2023/10/08 06:39:18;;;;;;;;;;;;;;;;;;5018370;28;19933;-79
2023/10/08 06:41:46;;;;;;;;;;;;;;;;;;5018557;28;19968;-78
2023/10/08 06:44:15;;;;;;;;;;;;;;;;;;5016088;28;20361;-78
2023/10/08 06:46:42;;;;;;;;;;;;;;;;;;5019536;28;20294;-79
2023/10/08 06:49:11;;;;;;;;;;;;;;;;;;5017743;28;19926;-78
2023/10/08 06:51:38;;;;;;;;;;;;;;;;;;5020619;28;19968;-78
2023/10/08 06:54:09;;;;;;;;;;;;;;;;;;5022408;28;19932;-79
2023/10/08 06:56:36;;;;;;;;;;;;;;;;;;5025526;28;19952;-79
2023/10/08 06:59:03;;;;;;;;;;;;;;;;;;5022887;28;19929;-79
2023/10/08 07:01:38;;;;;;;;;;;;;;;;;;5021445;28;19926;-79
2023/10/08 07:04:06;;;;;;;;;;;;;;;;;;5017890;28;19925;-77
2023/10/08 07:06:33;;;;;;;;;;;;;;;;;;5018232;28;20012;-78
2023/10/08 07:09:04;;;;;;;;;;;;;;;;;;5021272;28;19926;-78
2023/10/08 07:11:34;;;;;;;;;;;;;;;;;;5017585;28;19933;-77
2023/10/08 07:14:01;;;;;;;;;;;;;;;;;;5017916;28;19926;-77
2023/10/08 07:16:28;;;;;;;;;;;;;;;;;;5018012;28;20370;-78
2023/10/08 07:19:01;;;;;;;;;;;;;;;;;;5018039;28;19933;-78
2023/10/08 07:21:29;;;;;;;;;;;;;;;;;;5017502;28;20363;-77
2023/10/08 07:24:00;;;;;;;;;;;;;;;;;;5022884;28;19960;-79
2023/10/08 07:26:35;;;;;;;;;;;;;;;;;;5024708;28;19932;-79
2023/10/08 07:29:07;;;;;;;;;;;;;;;;;;5024669;28;19925;-79
2023/10/08 07:31:35;;;;;;;;;;;;;;;;;;5026309;28;19932;-80
2023/10/08 07:34:15;;;;;;;;;;;;;;;;;;5019080;28;19926;-78
2023/10/08 07:36:43;;;;;;;;;;;;;;;;;;5022752;28;19949;-77
2023/10/08 07:39:25;;;;;;;;;;;;;;;;;;5030558;28;19997;-78
2023/10/08 07:41:53;;;;;;;;;;;;;;;;;;5033522;28;19975;-78
2023/10/08 07:44:21;;;;;;;;;;;;;;;;;;5022320;28;19929;-77
2023/10/08 07:46:48;;;;;;;;;;;;;;;;;;5020949;28;20382;-79
2023/10/08 07:49:15;;;;;;;;;;;;;;;;;;5019973;28;19934;-78
2023/10/08 07:51:48;;;;;;;;;;;;;;;;;;5017070;28;19925;-77
2023/10/08 07:54:16;;;;;;;;;;;;;;;;;;5017954;28;19926;-78
2023/10/08 07:56:43;;;;;;;;;;;;;;;;;;5017733;28;20020;-77
2023/10/08 07:59:14;;;;;;;;;;;;;;;;;;5017351;28;19926;-78
2023/10/08 08:01:42;;;;;;;;;;;;;;;;;;5017543;28;19969;-78
2023/10/08 08:04:10;;;;;;;;;;;;;;;;;;5016679;28;20374;-77
2023/10/08 08:06:37;;;;;;;;;;;;;;;;;;5016863;28;19925;-75
2023/10/08 08:09:08;;;;;;;;;;;;;;;;;;5016683;28;19933;-77
2023/10/08 08:11:36;;;;;;;;;;;;;;;;;;5016731;28;19926;-77
2023/10/08 08:14:07;;;;;;;;;;;;;;;;;;5016746;28;19926;-76
2023/10/08 08:16:36;;;;;;;;;;;;;;;;;;5016247;28;19925;-77
2023/10/08 08:19:03;;;;;;;;;;;;;;;;;;5016349;28;19926;-77
2023/10/08 08:21:31;;;;;;;;;;;;;;;;;;5016719;28;19925;-75
2023/10/08 08:24:04;;;;;;;;;;;;;;;;;;5016791;28;19961;-77
2023/10/08 08:26:39;;;;;;;;;;;;;;;;;;5018255;28;19925;-78
2023/10/08 08:29:08;;;;;;;;;;;;;;;;;;5022212;28;19926;-77
2023/10/08 08:31:36;;;;;;;;;;;;;;;;;;5020272;28;20012;-77
2023/10/08 08:34:08;;;;;;;;;;;;;;;;;;5019208;28;19929;-77
2023/10/08 08:36:37;;;;;;;;;;;;;;;;;;5017488;28;19997;-79
2023/10/08 08:39:08;;;;;;;;;;;;;;;;;;5018224;28;19925;-78
2023/10/08 08:41:37;;;;;;;;;;;;;;;;;;5020623;28;19941;-78
2023/10/08 08:44:06;;;;;;;;;;;;;;;;;;5018780;28;19930;-75
2023/10/08 08:46:35;;;;;;;;;;;;;;;;;;5015824;28;19925;-76
2023/10/08 08:49:03;;;;;;;;;;;;;;;;;;5015617;28;19933;-77
2023/10/08 08:51:30;;;;;;;;;;;;;;;;;;5015713;28;19925;-76
2023/10/08 08:53:59;;;;;;;;;;;;;;;;;;5015727;28;19980;-77
2023/10/08 08:56:26;;;;;;;;;;;;;;;;;;5015497;28;20342;-77
2023/10/08 08:58:53;;;;;;;;;;;;;;;;;;5015866;28;19932;-77
2023/10/08 09:01:20;;;;;;;;;;;;;;;;;;5015320;28;19926;-76
2023/10/08 09:03:48;;;;;;;;;;;;;;;;;;5017021;28;19929;-77
2023/10/08 09:06:15;;;;;;;;;;;;;;;;;;5016892;28;20003;-75
2023/10/08 09:08:45;;;;;;;;;;;;;;;;;;5016245;28;19932;-75
2023/10/08 09:11:12;;;;;;;;;;;;;;;;;;5015731;28;19929;-75
2023/10/08 09:13:40;;;;;;;;;;;;;;;;;;5015837;28;19926;-75
2023/10/08 09:16:06;;;;;;;;;;;;;;;;;;5015289;28;20393;-75
2023/10/08 09:18:33;;;;;;;;;;;;;;;;;;5015588;28;19925;-75
2023/10/08 09:21:00;;;;;;;;;;;;;;;;;;5015518;28;19925;-75
2023/10/08 09:23:28;;;;;;;;;;;;;;;;;;5015077;28;19937;-75
2023/10/08 09:26:02;;;;;;;;;;;;;;;;;;5015467;28;19929;-76
2023/10/08 09:28:29;;;;;;;;;;;;;;;;;;5015325;28;19968;-76
2023/10/08 09:30:58;;;;;;;;;;;;;;;;;;5015221;28;19949;-78
2023/10/08 09:33:25;;;;;;;;;;;;;;;;;;5016132;28;19925;-75
2023/10/08 09:35:55;;;;;;;;;;;;;;;;;;5015257;28;19925;-75
2023/10/08 09:38:23;;;;;;;;;;;;;;;;;;5015079;28;20310;-75
2023/10/08 09:40:52;;;;;;;;;;;;;;;;;;5014893;28;19926;-76
2023/10/08 09:43:19;;;;;;;;;;;;;;;;;;5014650;28;19991;-76
2023/10/08 09:45:46;;;;;;;;;;;;;;;;;;5014525;28;19975;-75
2023/10/08 09:48:13;;;;;;;;;;;;;;;;;;5014885;28;19933;-75
2023/10/08 09:50:40;;;;;;;;;;;;;;;;;;5014430;28;20363;-75
2023/10/08 09:53:08;;;;;;;;;;;;;;;;;;5015022;28;19929;-75
2023/10/08 09:55:34;;;;;;;;;;;;;;;;;;5016356;28;20306;-74
2023/10/08 09:58:01;;;;;;;;;;;;;;;;;;5016585;28;19925;-75
2023/10/08 10:00:31;;;;;;;;;;;;;;;;;;5016611;28;20024;-75
2023/10/08 10:02:59;;;;;;;;;;;;;;;;;;5017260;28;19925;-74
2023/10/08 10:05:28;;;;;;;;;;;;;;;;;;5016105;28;19935;-74
2023/10/08 10:07:55;;;;;;;;;;;;;;;;;;5016520;28;20008;-75
2023/10/08 10:10:22;;;;;;;;;;;;;;;;;;5015631;28;19926;-72
2023/10/08 10:12:49;;;;;;;;;;;;;;;;;;5015449;28;19929;-73
2023/10/08 10:15:17;;;;;;;;;;;;;;;;;;5015240;28;20359;-74
2023/10/08 10:17:43;;;;;;;;;;;;;;;;;;5014980;28;20433;-72
2023/10/08 10:20:13;;;;;;;;;;;;;;;;;;5015391;28;19932;-76
2023/10/08 10:22:42;;;;;;;;;;;;;;;;;;5016851;28;19972;-76
2023/10/08 10:25:17;;;;;;;;;;;;;;;;;;5016104;28;20023;-74
2023/10/08 10:27:44;;;;;;;;;;;;;;;;;;5016220;28;19976;-76
2023/10/08 10:30:14;;;;;;;;;;;;;;;;;;5016730;28;20020;-76
2023/10/08 10:32:43;;;;;;;;;;;;;;;;;;5013846;28;20390;-74
2023/10/08 10:35:11;;;;;;;;;;;;;;;;;;5014838;28;19932;-75
2023/10/08 10:37:41;;;;;;;;;;;;;;;;;;5015591;28;19926;-74
2023/10/08 10:40:12;;;;;;;;;;;;;;;;;;5015742;28;20383;-76
2023/10/08 10:42:44;;;;;;;;;;;;;;;;;;5016368;28;19925;-75
2023/10/08 10:45:11;;;;;;;;;;;;;;;;;;5014963;28;20290;-74
2023/10/08 10:47:43;;;;;;;;;;;;;;;;;;5015583;28;19930;-74
2023/10/08 10:50:26;;;;;;;;;;;;;;;;;;5015350;28;19980;-74
2023/10/08 10:52:53;;;;;;;;;;;;;;;;;;5014989;28;19922;-73
2023/10/08 10:55:21;;;;;;;;;;;;;;;;;;5014769;28;20052;-73
2023/10/08 10:57:54;;;;;;;;;;;;;;;;;;5015227;28;19933;-72
2023/10/08 11:00:47;;;;;;;;;;;;;;;;;;5014375;28;19932;-72
2023/10/08 11:03:16;;;;;;;;;;;;;;;;;;5013486;28;20395;-71
2023/10/08 11:05:47;;;;;;;;;;;;;;;;;;5013656;28;19925;-73
2023/10/08 11:08:14;;;;;;;;;;;;;;;;;;5013477;28;20303;-71
2023/10/08 11:10:46;;;;;;;;;;;;;;;;;;5014108;28;19932;-71
2023/10/08 11:13:15;;;;;;;;;;;;;;;;;;5013771;28;19926;-72
2023/10/08 11:15:42;;;;;;;;;;;;;;;;;;5013701;28;19926;-71
2023/10/08 11:18:09;;;;;;;;;;;;;;;;;;5013656;28;19933;-72
2023/10/08 11:20:39;;;;;;;;;;;;;;;;;;5013711;28;19933;-72
2023/10/08 11:23:18;;;;;;;;;;;;;;;;;;5013529;28;19991;-72
2023/10/08 11:25:46;;;;;;;;;;;;;;;;;;5013477;28;19988;-73
2023/10/08 11:28:13;;;;;;;;;;;;;;;;;;5013580;28;19956;-72
2023/10/08 11:30:42;;;;;;;;;;;;;;;;;;5013182;28;20402;-72
2023/10/08 11:33:15;;;;;;;;;;;;;;;;;;5013188;28;20294;-71
2023/10/08 11:35:51;;;;;;;;;;;;;;;;;;5013523;28;19972;-71
2023/10/08 11:38:22;;;;;;;;;;;;;;;;;;5016718;28;19948;-72
2023/10/08 11:40:49;;;;;;;;;;;;;;;;;;5017217;28;19925;-71
2023/10/08 11:43:17;;;;;;;;;;;;;;;;;;5017333;28;19929;-70
2023/10/08 11:45:48;;;;;;;;;;;;;;;;;;5016599;28;19925;-70
2023/10/08 11:48:17;;;;;;;;;;;;;;;;;;5017087;28;19976;-69
2023/10/08 11:50:44;;;;;;;;;;;;;;;;;;5017112;28;19926;-72
2023/10/08 11:53:11;;;;;;;;;;;;;;;;;;5016596;28;19925;-73
2023/10/08 11:55:38;;;;;;;;;;;;;;;;;;5017292;28;19991;-73
2023/10/08 11:58:09;;;;;;;;;;;;;;;;;;5016979;28;19969;-72
2023/10/08 12:00:43;;;;;;;;;;;;;;;;;;5016861;28;20024;-74
2023/10/08 12:03:11;;;;;;;;;;;;;;;;;;5016749;28;19926;-72
2023/10/08 12:05:38;;;;;;;;;;;;;;;;;;5016692;28;20314;-71
2023/10/08 12:08:08;;;;;;;;;;;;;;;;;;5016858;28;19988;-70
2023/10/08 12:10:35;;;;;;;;;;;;;;;;;;5016742;28;19925;-73
2023/10/08 12:13:05;;;;;;;;;;;;;;;;;;5016651;28;19925;-74
2023/10/08 12:15:38;;;;;;;;;;;;;;;;;;5016335;28;20334;-73
2023/10/08 12:18:15;;;;;;;;;;;;;;;;;;5017073;28;20043;-73
2023/10/08 12:20:43;;;;;;;;;;;;;;;;;;5016838;28;19926;-74
2023/10/08 12:23:11;;;;;;;;;;;;;;;;;;5016795;28;19972;-74
2023/10/08 12:25:38;;;;;;;;;;;;;;;;;;5016929;28;19929;-74
2023/10/08 12:28:05;;;;;;;;;;;;;;;;;;5020325;28;19926;-74
2023/10/08 12:30:32;;;;;;;;;;;;;;;;;;5023338;28;19932;-75
2023/10/08 12:32:59;;;;;;;;;;;;;;;;;;5022054;28;19926;-73
2023/10/08 12:35:26;;;;;;;;;;;;;;;;;;5023205;28;19935;-75
2023/10/08 12:37:53;;;;;;;;;;;;;;;;;;5016952;28;19933;-73
2023/10/08 12:40:23;;;;;;;;;;;;;;;;;;5016531;28;19926;-74
2023/10/08 12:42:50;;;;;;;;;;;;;;;;;;5016078;28;19971;-74
2023/10/08 12:45:20;;;;;;;;;;;;;;;;;;5015747;28;19933;-73
2023/10/08 12:47:47;;;;;;;;;;;;;;;;;;5015641;28;19925;-74
2023/10/08 12:50:15;;;;;;;;;;;;;;;;;;5016225;28;19926;-73
2023/10/08 12:52:47;;;;;;;;;;;;;;;;;;5015968;28;19925;-73
2023/10/08 12:55:14;;;;;;;;;;;;;;;;;;5015683;28;19925;-73
2023/10/08 12:57:42;;;;;;;;;;;;;;;;;;5015764;28;19926;-72
2023/10/08 13:00:09;;;;;;;;;;;;;;;;;;5015376;28;20306;-74
2023/10/08 13:02:39;;;;;;;;;;;;;;;;;;5015730;28;19925;-73
2023/10/08 13:05:15;;;;;;;;;;;;;;;;;;5015527;28;19948;-73
2023/10/08 13:07:44;;;;;;;;;;;;;;;;;;5015296;28;20028;-72
2023/10/08 13:10:14;;;;;;;;;;;;;;;;;;5015572;28;19925;-72
2023/10/08 13:12:41;;;;;;;;;;;;;;;;;;5015430;28;19925;-72
2023/10/08 13:15:08;;;;;;;;;;;;;;;;;;5015392;28;19972;-71
2023/10/08 13:17:35;;;;;;;;;;;;;;;;;;5015368;28;19948;-71
2023/10/08 13:20:03;;;;;;;;;;;;;;;;;;5015224;28;20000;-71
2023/10/08 13:22:33;;;;;;;;;;;;;;;;;;5015153;28;19925;-70
2023/10/08 13:25:04;;;;;;;;;;;;;;;;;;5015209;28;19925;-72
2023/10/08 13:27:31;;;;;;;;;;;;;;;;;;5015133;28;19981;-72
2023/10/08 13:29:58;;;;;;;;;;;;;;;;;;5014953;28;20326;-73
2023/10/08 13:32:25;;;;;;;;;;;;;;;;;;5014822;28;20379;-73
2023/10/08 13:34:52;;;;;;;;;;;;;;;;;;5015532;28;19933;-74
2023/10/08 13:37:19;;;;;;;;;;;;;;;;;;5015396;28;19936;-73
2023/10/08 13:39:46;;;;;;;;;;;;;;;;;;5020595;28;19926;-74
2023/10/08 13:42:19;;;;;;;;;;;;;;;;;;5018601;28;20008;-74
2023/10/08 13:44:45;;;;;;;;;;;;;;;;;;5016002;28;19932;-74
2023/10/08 13:47:15;;;;;;;;;;;;;;;;;;5014925;28;19933;-74
2023/10/08 13:49:42;;;;;;;;;;;;;;;;;;5014906;28;19926;-74
2023/10/08 13:52:10;;;;;;;;;;;;;;;;;;5015195;28;20367;-74
2023/10/08 13:54:41;;;;;;;;;;;;;;;;;;5015058;28;20298;-74
2023/10/08 13:57:08;;;;;;;;;;;;;;;;;;5015325;28;19925;-75
2023/10/08 13:59:38;;;;;;;;;;;;;;;;;;5014053;28;19926;-74
2023/10/08 14:02:14;;;;;;;;;;;;;;;;;;5014328;28;20375;-74
2023/10/08 14:04:43;;;;;;;;;;;;;;;;;;5014558;28;19975;-73
2023/10/08 14:07:11;;;;;;;;;;;;;;;;;;5014448;28;19949;-74
2023/10/08 14:09:41;;;;;;;;;;;;;;;;;;5014645;28;19932;-73
2023/10/08 14:12:09;;;;;;;;;;;;;;;;;;5014248;28;19925;-74
2023/10/08 14:14:35;;;;;;;;;;;;;;;;;;5015046;28;19947;-74
2023/10/08 14:17:05;;;;;;;;;;;;;;;;;;5014419;28;19926;-74
2023/10/08 14:19:39;;;;;;;;;;;;;;;;;;5013440;28;21453;-74
2023/10/08 14:22:08;;;;;;;;;;;;;;;;;;5014447;28;19925;-74
2023/10/08 14:24:37;;;;;;;;;;;;;;;;;;5014357;28;19925;-74
2023/10/08 14:27:09;;;;;;;;;;;;;;;;;;5014401;28;19925;-73
2023/10/08 14:29:38;;;;;;;;;;;;;;;;;;5014308;28;20323;-73
2023/10/08 14:32:08;;;;;;;;;;;;;;;;;;5015109;28;20012;-73
2023/10/08 14:42:55;;;;;;;;;;;;;;;;;;5015060;28;20058;-74
2023/10/08 14:45:25;;;;;;;;;;;;;;;;;;5014574;28;20330;-74
2023/10/08 14:47:53;;;;;;;;;;;;;;;;;;5014590;28;19969;-74
2023/10/08 14:50:21;;;;;;;;;;;;;;;;;;5014603;28;19926;-73
2023/10/08 14:52:48;;;;;;;;;;;;;;;;;;5014512;28;20380;-74
2023/10/08 14:55:16;;;;;;;;;;;;;;;;;;5014733;28;19925;-73
2023/10/08 14:57:43;;;;;;;;;;;;;;;;;;5015878;28;19977;-72
2023/10/08 15:00:10;;;;;;;;;;;;;;;;;;5015311;28;19952;-74
2023/10/08 15:02:37;;;;;;;;;;;;;;;;;;5015636;28;19932;-75
2023/10/08 15:05:05;;;;;;;;;;;;;;;;;;5014580;28;19976;-75
2023/10/08 15:07:32;;;;;;;;;;;;;;;;;;5014115;28;19932;-74
2023/10/08 15:10:00;;;;;;;;;;;;;;;;;;5014430;28;19929;-73
2023/10/08 15:12:27;;;;;;;;;;;;;;;;;;5021446;28;19952;-73
2023/10/08 15:14:54;;;;;;;;;;;;;;;;;;5022444;28;19926;-76
2023/10/08 15:17:21;;;;;;;;;;;;;;;;;;5021046;28;19933;-73
2023/10/08 15:19:48;;;;;;;;;;;;;;;;;;5019681;28;20359;-74
2023/10/08 15:22:15;;;;;;;;;;;;;;;;;;5018543;28;19932;-73
2023/10/08 15:24:43;;;;;;;;;;;;;;;;;;5020826;28;19925;-74
2023/10/08 15:27:11;;;;;;;;;;;;;;;;;;5021891;28;19929;-73
2023/10/08 15:29:38;;;;;;;;;;;;;;;;;;5017341;28;20441;-73
2023/10/08 15:32:05;;;;;;;;;;;;;;;;;;5017399;28;19926;-75
2023/10/08 15:34:33;;;;;;;;;;;;;;;;;;5017583;28;19926;-73
2023/10/08 15:36:59;;;;;;;;;;;;;;;;;;5018247;28;20383;-74
2023/10/08 15:39:28;;;;;;;;;;;;;;;;;;5017553;28;19935;-73
2023/10/08 15:41:55;;;;;;;;;;;;;;;;;;5017520;28;19995;-73
2023/10/08 15:44:22;;;;;;;;;;;;;;;;;;5017759;28;19929;-73
2023/10/08 15:46:49;;;;;;;;;;;;;;;;;;5018244;28;19925;-73
2023/10/08 15:49:18;;;;;;;;;;;;;;;;;;5017869;28;19925;-72
2023/10/08 15:51:45;;;;;;;;;;;;;;;;;;5017473;28;20302;-73
2023/10/08 15:54:12;;;;;;;;;;;;;;;;;;5017063;28;19925;-73
2023/10/08 15:56:39;;;;;;;;;;;;;;;;;;5016523;28;19926;-73
2023/10/08 15:59:06;;;;;;;;;;;;;;;;;;5016770;28;19932;-74
2023/10/08 16:01:33;;;;;;;;;;;;;;;;;;5016709;28;19925;-74
2023/10/08 16:04:00;;;;;;;;;;;;;;;;;;5016767;28;19936;-74
2023/10/08 16:06:27;;;;;;;;;;;;;;;;;;5016610;28;19936;-74
2023/10/08 16:08:53;;;;;;;;;;;;;;;;;;5016511;28;20342;-74
2023/10/08 16:11:20;;;;;;;;;;;;;;;;;;5016791;28;19933;-74
2023/10/08 16:13:46;;;;;;;;;;;;;;;;;;5016362;28;20032;-74
2023/10/08 16:16:14;;;;;;;;;;;;;;;;;;5016776;28;20383;-74
2023/10/08 16:18:41;;;;;;;;;;;;;;;;;;5016323;28;19925;-74
2023/10/08 16:21:09;;;;;;;;;;;;;;;;;;5016403;28;19926;-74
2023/10/08 16:23:36;;;;;;;;;;;;;;;;;;5015635;28;20272;-74
2023/10/08 16:26:03;;;;;;;;;;;;;;;;;;5016568;28;19925;-73
2023/10/08 16:28:30;;;;;;;;;;;;;;;;;;5016582;28;19930;-74
2023/10/08 16:30:58;;;;;;;;;;;;;;;;;;5016272;28;19973;-74
2023/10/08 16:33:29;;;;;;;;;;;;;;;;;;5015708;28;19980;-74
2023/10/08 16:35:56;;;;;;;;;;;;;;;;;;5016072;28;19925;-74
2023/10/08 16:38:23;;;;;;;;;;;;;;;;;;5015963;28;19925;-74
2023/10/08 16:40:50;;;;;;;;;;;;;;;;;;5016726;28;19936;-73
2023/10/08 16:43:17;;;;;;;;;;;;;;;;;;5016027;28;19925;-77
2023/10/08 16:45:44;;;;;;;;;;;;;;;;;;5015549;28;19926;-75
2023/10/08 16:48:11;;;;;;;;;;;;;;;;;;5015923;28;19925;-75
2023/10/08 16:50:38;;;;;;;;;;;;;;;;;;5016623;28;19925;-75
2023/10/08 16:53:04;;;;;;;;;;;;;;;;;;5015799;28;19932;-75
2023/10/08 16:55:32;;;;;;;;;;;;;;;;;;5015750;28;19926;-75
2023/10/08 16:58:01;;;;;;;;;;;;;;;;;;5015824;28;19926;-74
2023/10/08 17:00:28;;;;;;;;;;;;;;;;;;5015386;28;20371;-75
2023/10/08 17:02:55;;;;;;;;;;;;;;;;;;5015607;28;19983;-75
2023/10/08 17:05:22;;;;;;;;;;;;;;;;;;5015509;28;20413;-74
2023/10/08 17:07:51;;;;;;;;;;;;;;;;;;5015586;28;19925;-74
2023/10/08 17:10:18;;;;;;;;;;;;;;;;;;5015957;28;19925;-76
2023/10/08 17:12:45;;;;;;;;;;;;;;;;;;5015355;28;19932;-75
2023/10/08 17:15:12;;;;;;;;;;;;;;;;;;5014942;28;20299;-75
2023/10/08 17:17:40;;;;;;;;;;;;;;;;;;5015429;28;19929;-74
2023/10/08 17:20:09;;;;;;;;;;;;;;;;;;5015509;28;19929;-75
2023/10/08 17:22:36;;;;;;;;;;;;;;;;;;5015650;28;19933;-76
2023/10/08 17:25:05;;;;;;;;;;;;;;;;;;5015252;28;20398;-74
2023/10/08 17:27:34;;;;;;;;;;;;;;;;;;5015588;28;20016;-75
2023/10/08 17:30:00;;;;;;;;;;;;;;;;;;5015659;28;20395;-75
2023/10/08 17:32:27;;;;;;;;;;;;;;;;;;5015675;28;19929;-75
2023/10/08 17:34:54;;;;;;;;;;;;;;;;;;5014613;28;19929;-75
2023/10/08 17:37:23;;;;;;;;;;;;;;;;;;5015464;28;19926;-75
2023/10/08 17:39:50;;;;;;;;;;;;;;;;;;5015304;28;19929;-75
2023/10/08 17:42:17;;;;;;;;;;;;;;;;;;5015385;28;19932;-75
2023/10/08 17:44:45;;;;;;;;;;;;;;;;;;5015638;28;20290;-75
2023/10/08 17:47:14;;;;;;;;;;;;;;;;;;5016311;28;19925;-76
2023/10/08 17:49:40;;;;;;;;;;;;;;;;;;5015650;28;19936;-75
2023/10/08 17:52:11;;;;;;;;;;;;;;;;;;5014713;28;20387;-73
2023/10/08 17:54:40;;;;;;;;;;;;;;;;;;5014045;28;19925;-74
2023/10/08 17:57:08;;;;;;;;;;;;;;;;;;5014267;28;19979;-74
2023/10/08 17:59:37;;;;;;;;;;;;;;;;;;5014676;28;19925;-74
2023/10/08 18:02:06;;;;;;;;;;;;;;;;;;5014960;28;19932;-74
2023/10/08 18:04:33;;;;;;;;;;;;;;;;;;5015578;28;19972;-74
2023/10/08 18:07:00;;;;;;;;;;;;;;;;;;5014629;28;19932;-74
2023/10/08 18:09:28;;;;;;;;;;;;;;;;;;5014789;28;19930;-75
2023/10/08 18:11:57;;;;;;;;;;;;;;;;;;5014840;28;19925;-76
2023/10/08 18:14:24;;;;;;;;;;;;;;;;;;5014600;28;20395;-77
2023/10/08 18:16:51;;;;;;;;;;;;;;;;;;5014801;28;19925;-76
2023/10/08 18:19:18;;;;;;;;;;;;;;;;;;5014616;28;19932;-76
2023/10/08 18:21:45;;;;;;;;;;;;;;;;;;5014635;28;19973;-76
2023/10/08 18:24:12;;;;;;;;;;;;;;;;;;5014728;28;19933;-76
2023/10/08 18:26:42;;;;;;;;;;;;;;;;;;5014616;28;19933;-76
2023/10/08 18:29:11;;;;;;;;;;;;;;;;;;5014812;28;19925;-75
2023/10/08 18:31:38;;;;;;;;;;;;;;;;;;5014683;28;19926;-76
2023/10/08 18:34:05;;;;;;;;;;;;;;;;;;5015352;28;19965;-75
2023/10/08 18:36:32;;;;;;;;;;;;;;;;;;5014672;28;19975;-75
2023/10/08 18:39:00;;;;;;;;;;;;;;;;;;5014157;28;19925;-76
2023/10/08 18:41:27;;;;;;;;;;;;;;;;;;5014578;28;19929;-76
2023/10/08 18:43:54;;;;;;;;;;;;;;;;;;5014342;28;20013;-75
2023/10/08 18:46:21;;;;;;;;;;;;;;;;;;5016710;28;19952;-75
2023/10/08 18:48:48;;;;;;;;;;;;;;;;;;5018778;28;19933;-76
2023/10/08 18:51:15;;;;;;;;;;;;;;;;;;5018804;28;20040;-75
2023/10/08 18:53:42;;;;;;;;;;;;;;;;;;5018565;28;19951;-76
2023/10/08 18:56:11;;;;;;;;;;;;;;;;;;5018670;28;19949;-76
2023/10/08 18:58:37;;;;;;;;;;;;;;;;;;5018354;28;19925;-75
2023/10/08 19:01:04;;;;;;;;;;;;;;;;;;5018269;28;19933;-75
2023/10/08 19:03:31;;;;;;;;;;;;;;;;;;5018279;28;19925;-75
2023/10/08 19:05:59;;;;;;;;;;;;;;;;;;5018333;28;19925;-76
2023/10/08 19:08:26;;;;;;;;;;;;;;;;;;5018442;28;19940;-75
2023/10/08 19:10:53;;;;;;;;;;;;;;;;;;5017812;28;20441;-75
2023/10/08 19:13:20;;;;;;;;;;;;;;;;;;5017931;28;20024;-76
2023/10/08 19:15:47;;;;;;;;;;;;;;;;;;5017899;28;19925;-76
2023/10/08 19:18:14;;;;;;;;;;;;;;;;;;5017822;28;19933;-76
2023/10/08 19:20:41;;;;;;;;;;;;;;;;;;5017858;28;19930;-76
2023/10/08 19:23:08;;;;;;;;;;;;;;;;;;5018269;28;20391;-76
2023/10/08 19:25:36;;;;;;;;;;;;;;;;;;5018050;28;19925;-76
2023/10/08 19:28:04;;;;;;;;;;;;;;;;;;5017755;28;19925;-75
2023/10/08 19:30:32;;;;;;;;;;;;;;;;;;5017935;28;19929;-75
2023/10/08 19:32:59;;;;;;;;;;;;;;;;;;5017801;28;19932;-75
2023/10/08 19:35:27;;;;;;;;;;;;;;;;;;5017935;28;19926;-75
2023/10/08 19:37:54;;;;;;;;;;;;;;;;;;5017719;28;19947;-75
2023/10/08 19:40:21;;;;;;;;;;;;;;;;;;5017753;28;20025;-75
2023/10/08 19:42:48;;;;;;;;;;;;;;;;;;5017733;28;19926;-77
2023/10/08 19:45:15;;;;;;;;;;;;;;;;;;5017760;28;19932;-76
2023/10/08 19:47:43;;;;;;;;;;;;;;;;;;5017258;28;19926;-76
2023/10/08 19:50:10;;;;;;;;;;;;;;;;;;5017486;28;19953;-76
2023/10/08 19:52:37;;;;;;;;;;;;;;;;;;5017464;28;19933;-75
2023/10/08 19:55:04;;;;;;;;;;;;;;;;;;5017502;28;19933;-75
2023/10/08 19:57:31;;;;;;;;;;;;;;;;;;5016236;28;20306;-76
2023/10/08 19:59:58;;;;;;;;;;;;;;;;;;5017217;28;19932;-77
2023/10/08 20:02:25;;;;;;;;;;;;;;;;;;5017064;28;19925;-76
2023/10/08 20:04:52;;;;;;;;;;;;;;;;;;5016943;28;20375;-75
2023/10/08 20:07:19;;;;;;;;;;;;;;;;;;5018028;28;19955;-76
2023/10/08 20:09:47;;;;;;;;;;;;;;;;;;5016803;28;19932;-76
2023/10/08 20:12:14;;;;;;;;;;;;;;;;;;5016411;28;20398;-74
2023/10/08 20:14:42;;;;;;;;;;;;;;;;;;5016562;28;19929;-74
2023/10/08 20:17:09;;;;;;;;;;;;;;;;;;5016765;28;20366;-74
2023/10/08 20:19:38;;;;;;;;;;;;;;;;;;5016571;28;19925;-77
2023/10/08 20:22:06;;;;;;;;;;;;;;;;;;5016375;28;20446;-72
2023/10/08 20:24:33;;;;;;;;;;;;;;;;;;5016013;28;19980;-72
2023/10/08 20:27:00;;;;;;;;;;;;;;;;;;5016675;28;19933;-71
2023/10/08 20:29:28;;;;;;;;;;;;;;;;;;5016263;28;20395;-72
2023/10/08 20:31:59;;;;;;;;;;;;;;;;;;5016906;28;19929;-72
2023/10/08 20:34:27;;;;;;;;;;;;;;;;;;5018795;28;19952;-73
2023/10/08 20:36:54;;;;;;;;;;;;;;;;;;5018476;28;19925;-73
2023/10/08 20:39:29;;;;;;;;;;;;;;;;;;5018660;28;19937;-74
2023/10/08 20:41:56;;;;;;;;;;;;;;;;;;5018452;28;19926;-74
2023/10/08 20:44:25;;;;;;;;;;;;;;;;;;5015973;28;19925;-74
2023/10/08 20:46:52;;;;;;;;;;;;;;;;;;5016158;28;19929;-75
2023/10/08 20:49:19;;;;;;;;;;;;;;;;;;5015915;28;19925;-73
2023/10/08 20:51:47;;;;;;;;;;;;;;;;;;5015814;28;20417;-75
2023/10/08 20:54:14;;;;;;;;;;;;;;;;;;5015843;28;19997;-74
2023/10/08 20:56:41;;;;;;;;;;;;;;;;;;5015853;28;19952;-74
2023/10/08 20:59:08;;;;;;;;;;;;;;;;;;5015665;28;19925;-74
2023/10/08 21:01:37;;;;;;;;;;;;;;;;;;5015638;28;19947;-75
2023/10/08 21:04:03;;;;;;;;;;;;;;;;;;5015483;28;19932;-74
2023/10/08 21:06:30;;;;;;;;;;;;;;;;;;5015636;28;19926;-74
2023/10/08 21:08:57;;;;;;;;;;;;;;;;;;5015228;28;19991;-74
2023/10/08 21:11:24;;;;;;;;;;;;;;;;;;5015201;28;19932;-75
2023/10/08 21:13:51;;;;;;;;;;;;;;;;;;5015289;28;19929;-74
2023/10/08 21:16:19;;;;;;;;;;;;;;;;;;5015330;28;19925;-75
2023/10/08 21:18:45;;;;;;;;;;;;;;;;;;5015018;28;20446;-75
2023/10/08 21:21:14;;;;;;;;;;;;;;;;;;5015266;28;19925;-76
2023/10/08 21:23:41;;;;;;;;;;;;;;;;;;5015168;28;19926;-76
2023/10/08 21:26:08;;;;;;;;;;;;;;;;;;5015256;28;19932;-75
2023/10/08 21:28:35;;;;;;;;;;;;;;;;;;5015058;28;19925;-75
2023/10/08 21:31:02;;;;;;;;;;;;;;;;;;5015370;28;19953;-75
2023/10/08 21:33:29;;;;;;;;;;;;;;;;;;5015144;28;19933;-75
2023/10/08 21:35:56;;;;;;;;;;;;;;;;;;5015187;28;19926;-76
2023/10/08 21:38:23;;;;;;;;;;;;;;;;;;5015017;28;19926;-74
